sensor_id;sensor_type;location;lat;lon;timestamp;P1;durP1;ratioP1;P2;durP2;ratioP2
54430;SDS011;40342;52.998;5.862;2024-02-15T00:00:21;40.70;;;16.10;;
54430;SDS011;40342;52.998;5.862;2024-02-15T00:02:47;32.22;;;16.67;;
54430;SDS011;40342;52.998;5.862;2024-02-15T00:05:14;35.55;;;15.65;;
54430;SDS011;40342;52.998;5.862;2024-02-15T00:07:41;38.00;;;15.05;;
54430;SDS011;40342;52.998;5.862;2024-02-15T00:10:06;35.13;;;14.30;;
54430;SDS011;40342;52.998;5.862;2024-02-15T00:12:33;33.80;;;15.07;;
54430;SDS011;40342;52.998;5.862;2024-02-15T00:14:59;33.00;;;13.90;;
54430;SDS011;40342;52.998;5.862;2024-02-15T00:17:27;37.60;;;15.13;;
54430;SDS011;40342;52.998;5.862;2024-02-15T00:19:54;35.83;;;14.75;;
54430;SDS011;40342;52.998;5.862;2024-02-15T00:22:20;36.72;;;14.68;;
54430;SDS011;40342;52.998;5.862;2024-02-15T00:24:46;29.73;;;12.90;;
54430;SDS011;40342;52.998;5.862;2024-02-15T00:27:14;29.50;;;12.48;;
54430;SDS011;40342;52.998;5.862;2024-02-15T00:29:40;28.25;;;10.95;;
54430;SDS011;40342;52.998;5.862;2024-02-15T00:32:06;34.85;;;11.40;;
54430;SDS011;40342;52.998;5.862;2024-02-15T00:34:32;22.95;;;10.60;;
54430;SDS011;40342;52.998;5.862;2024-02-15T00:36:58;30.08;;;9.93;;
54430;SDS011;40342;52.998;5.862;2024-02-15T00:39:24;22.05;;;8.68;;
54430;SDS011;40342;52.998;5.862;2024-02-15T00:41:49;28.15;;;9.55;;
54430;SDS011;40342;52.998;5.862;2024-02-15T00:44:15;27.08;;;8.93;;
54430;SDS011;40342;52.998;5.862;2024-02-15T00:46:42;27.63;;;9.05;;
54430;SDS011;40342;52.998;5.862;2024-02-15T00:49:08;24.42;;;9.80;;
54430;SDS011;40342;52.998;5.862;2024-02-15T00:51:37;31.25;;;9.95;;
54430;SDS011;40342;52.998;5.862;2024-02-15T00:54:02;32.17;;;9.20;;
54430;SDS011;40342;52.998;5.862;2024-02-15T00:56:28;30.20;;;9.75;;
54430;SDS011;40342;52.998;5.862;2024-02-15T00:59:00;25.13;;;9.45;;
54430;SDS011;40342;52.998;5.862;2024-02-15T01:01:26;23.80;;;9.35;;
54430;SDS011;40342;52.998;5.862;2024-02-15T01:03:52;28.70;;;9.43;;
54430;SDS011;40342;52.998;5.862;2024-02-15T01:06:17;28.30;;;10.15;;
54430;SDS011;40342;52.998;5.862;2024-02-15T01:08:43;25.08;;;8.98;;
54430;SDS011;40342;52.998;5.862;2024-02-15T01:11:09;26.65;;;9.10;;
54430;SDS011;40342;52.998;5.862;2024-02-15T01:13:35;25.27;;;8.52;;
54430;SDS011;40342;52.998;5.862;2024-02-15T01:16:00;23.85;;;8.20;;
54430;SDS011;40342;52.998;5.862;2024-02-15T01:18:28;22.13;;;7.68;;
54430;SDS011;40342;52.998;5.862;2024-02-15T01:20:55;23.70;;;8.15;;
54430;SDS011;40342;52.998;5.862;2024-02-15T01:23:21;28.13;;;7.45;;
54430;SDS011;40342;52.998;5.862;2024-02-15T01:25:47;27.48;;;8.10;;
54430;SDS011;40342;52.998;5.862;2024-02-15T01:28:13;24.90;;;7.28;;
54430;SDS011;40342;52.998;5.862;2024-02-15T01:30:39;24.83;;;9.60;;
54430;SDS011;40342;52.998;5.862;2024-02-15T01:33:05;28.77;;;9.00;;
54430;SDS011;40342;52.998;5.862;2024-02-15T01:35:31;23.90;;;9.70;;
54430;SDS011;40342;52.998;5.862;2024-02-15T01:37:57;26.63;;;9.90;;
54430;SDS011;40342;52.998;5.862;2024-02-15T01:40:22;31.83;;;9.85;;
54430;SDS011;40342;52.998;5.862;2024-02-15T01:42:48;25.73;;;9.88;;
54430;SDS011;40342;52.998;5.862;2024-02-15T01:45:15;22.65;;;9.18;;
54430;SDS011;40342;52.998;5.862;2024-02-15T01:47:41;24.85;;;9.20;;
54430;SDS011;40342;52.998;5.862;2024-02-15T01:50:12;24.55;;;9.25;;
54430;SDS011;40342;52.998;5.862;2024-02-15T01:52:39;22.20;;;8.93;;
54430;SDS011;40342;52.998;5.862;2024-02-15T01:55:08;24.80;;;8.98;;
54430;SDS011;40342;52.998;5.862;2024-02-15T01:57:35;17.95;;;8.10;;
54430;SDS011;40342;52.998;5.862;2024-02-15T02:00:03;33.15;;;9.02;;
54430;SDS011;40342;52.998;5.862;2024-02-15T02:02:31;23.02;;;7.80;;
54430;SDS011;40342;52.998;5.862;2024-02-15T02:04:59;20.83;;;6.95;;
54430;SDS011;40342;52.998;5.862;2024-02-15T02:07:25;17.38;;;6.38;;
54430;SDS011;40342;52.998;5.862;2024-02-15T02:09:51;17.13;;;6.13;;
54430;SDS011;40342;52.998;5.862;2024-02-15T02:12:18;20.75;;;7.15;;
54430;SDS011;40342;52.998;5.862;2024-02-15T02:14:43;21.75;;;7.22;;
54430;SDS011;40342;52.998;5.862;2024-02-15T02:17:13;18.05;;;6.32;;
54430;SDS011;40342;52.998;5.862;2024-02-15T02:19:39;24.30;;;7.00;;
54430;SDS011;40342;52.998;5.862;2024-02-15T02:22:05;26.73;;;6.70;;
54430;SDS011;40342;52.998;5.862;2024-02-15T02:27:36;19.48;;;6.97;;
54430;SDS011;40342;52.998;5.862;2024-02-15T02:30:08;27.67;;;8.13;;
54430;SDS011;40342;52.998;5.862;2024-02-15T02:32:44;25.10;;;7.18;;
54430;SDS011;40342;52.998;5.862;2024-02-15T02:35:19;29.75;;;8.13;;
54430;SDS011;40342;52.998;5.862;2024-02-15T02:37:45;28.83;;;7.18;;
54430;SDS011;40342;52.998;5.862;2024-02-15T02:40:11;29.35;;;7.75;;
54430;SDS011;40342;52.998;5.862;2024-02-15T02:42:46;25.67;;;7.40;;
54430;SDS011;40342;52.998;5.862;2024-02-15T02:45:24;23.63;;;6.85;;
54430;SDS011;40342;52.998;5.862;2024-02-15T02:47:50;23.98;;;6.63;;
54430;SDS011;40342;52.998;5.862;2024-02-15T02:50:17;25.95;;;7.05;;
54430;SDS011;40342;52.998;5.862;2024-02-15T02:52:43;31.90;;;7.35;;
54430;SDS011;40342;52.998;5.862;2024-02-15T02:55:12;21.83;;;7.40;;
54430;SDS011;40342;52.998;5.862;2024-02-15T02:57:38;26.90;;;8.27;;
54430;SDS011;40342;52.998;5.862;2024-02-15T03:00:04;27.77;;;8.38;;
54430;SDS011;40342;52.998;5.862;2024-02-15T03:02:34;22.70;;;7.30;;
54430;SDS011;40342;52.998;5.862;2024-02-15T03:05:04;26.30;;;8.95;;
54430;SDS011;40342;52.998;5.862;2024-02-15T03:07:34;28.50;;;8.85;;
54430;SDS011;40342;52.998;5.862;2024-02-15T03:10:01;27.67;;;8.75;;
54430;SDS011;40342;52.998;5.862;2024-02-15T03:12:37;28.75;;;9.05;;
54430;SDS011;40342;52.998;5.862;2024-02-15T03:15:03;26.92;;;9.85;;
54430;SDS011;40342;52.998;5.862;2024-02-15T03:17:29;24.80;;;9.05;;
54430;SDS011;40342;52.998;5.862;2024-02-15T03:19:57;30.80;;;9.32;;
54430;SDS011;40342;52.998;5.862;2024-02-15T03:22:24;25.77;;;10.10;;
54430;SDS011;40342;52.998;5.862;2024-02-15T03:24:51;29.75;;;10.68;;
54430;SDS011;40342;52.998;5.862;2024-02-15T03:27:17;27.27;;;11.07;;
54430;SDS011;40342;52.998;5.862;2024-02-15T03:29:43;29.05;;;11.35;;
54430;SDS011;40342;52.998;5.862;2024-02-15T03:32:08;25.13;;;10.30;;
54430;SDS011;40342;52.998;5.862;2024-02-15T03:34:36;22.27;;;10.82;;
54430;SDS011;40342;52.998;5.862;2024-02-15T03:37:05;27.63;;;11.38;;
54430;SDS011;40342;52.998;5.862;2024-02-15T03:39:31;26.42;;;10.68;;
54430;SDS011;40342;52.998;5.862;2024-02-15T03:41:58;28.58;;;11.95;;
54430;SDS011;40342;52.998;5.862;2024-02-15T03:44:24;29.80;;;11.32;;
54430;SDS011;40342;52.998;5.862;2024-02-15T03:46:51;19.70;;;10.15;;
54430;SDS011;40342;52.998;5.862;2024-02-15T03:49:18;26.55;;;11.57;;
54430;SDS011;40342;52.998;5.862;2024-02-15T03:51:45;27.70;;;11.30;;
54430;SDS011;40342;52.998;5.862;2024-02-15T03:54:11;28.60;;;12.32;;
54430;SDS011;40342;52.998;5.862;2024-02-15T03:56:45;24.80;;;11.10;;
54430;SDS011;40342;52.998;5.862;2024-02-15T03:59:20;21.98;;;11.98;;
54430;SDS011;40342;52.998;5.862;2024-02-15T04:01:51;24.20;;;11.32;;
54430;SDS011;40342;52.998;5.862;2024-02-15T04:04:22;22.58;;;11.32;;
54430;SDS011;40342;52.998;5.862;2024-02-15T04:06:51;21.58;;;10.80;;
54430;SDS011;40342;52.998;5.862;2024-02-15T04:09:17;26.02;;;12.20;;
54430;SDS011;40342;52.998;5.862;2024-02-15T04:11:44;21.75;;;11.60;;
54430;SDS011;40342;52.998;5.862;2024-02-15T04:14:12;20.98;;;11.10;;
54430;SDS011;40342;52.998;5.862;2024-02-15T04:16:38;28.65;;;11.38;;
54430;SDS011;40342;52.998;5.862;2024-02-15T04:19:10;25.40;;;11.30;;
54430;SDS011;40342;52.998;5.862;2024-02-15T04:21:36;20.10;;;11.20;;
54430;SDS011;40342;52.998;5.862;2024-02-15T04:24:05;24.90;;;11.10;;
54430;SDS011;40342;52.998;5.862;2024-02-15T04:26:31;26.08;;;11.93;;
54430;SDS011;40342;52.998;5.862;2024-02-15T04:28:58;21.55;;;10.80;;
54430;SDS011;40342;52.998;5.862;2024-02-15T04:31:24;17.92;;;11.45;;
54430;SDS011;40342;52.998;5.862;2024-02-15T04:33:53;20.83;;;11.05;;
54430;SDS011;40342;52.998;5.862;2024-02-15T04:36:19;21.83;;;11.10;;
54430;SDS011;40342;52.998;5.862;2024-02-15T04:38:49;17.40;;;10.63;;
54430;SDS011;40342;52.998;5.862;2024-02-15T04:41:16;18.40;;;10.80;;
54430;SDS011;40342;52.998;5.862;2024-02-15T04:43:48;17.63;;;12.18;;
54430;SDS011;40342;52.998;5.862;2024-02-15T04:46:19;19.20;;;10.45;;
54430;SDS011;40342;52.998;5.862;2024-02-15T04:48:49;23.95;;;11.80;;
54430;SDS011;40342;52.998;5.862;2024-02-15T04:51:15;20.45;;;11.55;;
54430;SDS011;40342;52.998;5.862;2024-02-15T04:53:42;18.48;;;10.18;;
54430;SDS011;40342;52.998;5.862;2024-02-15T04:56:08;20.08;;;10.38;;
54430;SDS011;40342;52.998;5.862;2024-02-15T04:58:42;17.27;;;10.25;;
54430;SDS011;40342;52.998;5.862;2024-02-15T05:01:12;18.65;;;10.43;;
54430;SDS011;40342;52.998;5.862;2024-02-15T05:03:38;18.25;;;10.02;;
54430;SDS011;40342;52.998;5.862;2024-02-15T05:06:04;19.40;;;10.57;;
54430;SDS011;40342;52.998;5.862;2024-02-15T05:08:33;15.82;;;9.73;;
54430;SDS011;40342;52.998;5.862;2024-02-15T05:11:04;18.92;;;10.40;;
54430;SDS011;40342;52.998;5.862;2024-02-15T05:13:31;20.65;;;10.50;;
54430;SDS011;40342;52.998;5.862;2024-02-15T05:15:57;18.23;;;10.50;;
54430;SDS011;40342;52.998;5.862;2024-02-15T05:18:23;23.25;;;11.75;;
54430;SDS011;40342;52.998;5.862;2024-02-15T05:20:49;18.98;;;11.23;;
54430;SDS011;40342;52.998;5.862;2024-02-15T05:23:14;17.60;;;10.52;;
54430;SDS011;40342;52.998;5.862;2024-02-15T05:25:43;17.52;;;10.85;;
54430;SDS011;40342;52.998;5.862;2024-02-15T05:28:09;25.25;;;11.15;;
54430;SDS011;40342;52.998;5.862;2024-02-15T05:30:34;18.15;;;11.82;;
54430;SDS011;40342;52.998;5.862;2024-02-15T05:33:02;26.33;;;12.77;;
54430;SDS011;40342;52.998;5.862;2024-02-15T05:35:29;23.23;;;13.23;;
54430;SDS011;40342;52.998;5.862;2024-02-15T05:37:54;21.80;;;13.60;;
54430;SDS011;40342;52.998;5.862;2024-02-15T05:40:21;22.60;;;13.27;;
54430;SDS011;40342;52.998;5.862;2024-02-15T05:42:46;29.55;;;14.70;;
54430;SDS011;40342;52.998;5.862;2024-02-15T05:47:51;23.50;;;14.55;;
54430;SDS011;40342;52.998;5.862;2024-02-15T05:50:17;21.00;;;15.07;;
54430;SDS011;40342;52.998;5.862;2024-02-15T05:52:45;25.58;;;15.20;;
54430;SDS011;40342;52.998;5.862;2024-02-15T05:55:12;24.02;;;15.45;;
54430;SDS011;40342;52.998;5.862;2024-02-15T05:57:41;25.45;;;16.00;;
54430;SDS011;40342;52.998;5.862;2024-02-15T06:00:10;20.92;;;15.18;;
54430;SDS011;40342;52.998;5.862;2024-02-15T06:02:36;20.85;;;15.52;;
54430;SDS011;40342;52.998;5.862;2024-02-15T06:05:03;27.15;;;16.40;;
54430;SDS011;40342;52.998;5.862;2024-02-15T06:07:30;23.30;;;16.20;;
54430;SDS011;40342;52.998;5.862;2024-02-15T06:09:59;25.33;;;16.92;;
54430;SDS011;40342;52.998;5.862;2024-02-15T06:12:31;27.88;;;17.33;;
54430;SDS011;40342;52.998;5.862;2024-02-15T06:14:57;23.80;;;15.90;;
54430;SDS011;40342;52.998;5.862;2024-02-15T06:17:22;24.83;;;15.75;;
54430;SDS011;40342;52.998;5.862;2024-02-15T06:19:48;25.35;;;16.95;;
54430;SDS011;40342;52.998;5.862;2024-02-15T06:22:13;24.10;;;15.82;;
54430;SDS011;40342;52.998;5.862;2024-02-15T06:24:39;24.13;;;14.95;;
54430;SDS011;40342;52.998;5.862;2024-02-15T06:27:06;22.40;;;15.93;;
54430;SDS011;40342;52.998;5.862;2024-02-15T06:29:32;20.85;;;15.32;;
54430;SDS011;40342;52.998;5.862;2024-02-15T06:32:27;20.77;;;14.43;;
54430;SDS011;40342;52.998;5.862;2024-02-15T06:35:11;23.17;;;16.15;;
54430;SDS011;40342;52.998;5.862;2024-02-15T06:37:58;27.25;;;16.23;;
54430;SDS011;40342;52.998;5.862;2024-02-15T06:40:42;19.05;;;15.20;;
54430;SDS011;40342;52.998;5.862;2024-02-15T06:43:08;23.38;;;14.75;;
54430;SDS011;40342;52.998;5.862;2024-02-15T06:45:35;21.13;;;15.50;;
54430;SDS011;40342;52.998;5.862;2024-02-15T06:48:02;20.67;;;15.27;;
54430;SDS011;40342;52.998;5.862;2024-02-15T06:50:28;22.85;;;15.70;;
54430;SDS011;40342;52.998;5.862;2024-02-15T06:52:55;19.48;;;14.98;;
54430;SDS011;40342;52.998;5.862;2024-02-15T06:55:21;19.15;;;15.20;;
54430;SDS011;40342;52.998;5.862;2024-02-15T06:57:47;22.25;;;15.52;;
54430;SDS011;40342;52.998;5.862;2024-02-15T07:00:13;18.55;;;14.13;;
54430;SDS011;40342;52.998;5.862;2024-02-15T07:02:40;21.73;;;15.07;;
54430;SDS011;40342;52.998;5.862;2024-02-15T07:05:06;23.48;;;15.77;;
54430;SDS011;40342;52.998;5.862;2024-02-15T07:07:32;21.65;;;14.57;;
54430;SDS011;40342;52.998;5.862;2024-02-15T07:09:59;22.33;;;14.82;;
54430;SDS011;40342;52.998;5.862;2024-02-15T07:12:27;17.02;;;14.65;;
54430;SDS011;40342;52.998;5.862;2024-02-15T07:14:53;21.70;;;15.02;;
54430;SDS011;40342;52.998;5.862;2024-02-15T07:17:19;17.33;;;14.40;;
54430;SDS011;40342;52.998;5.862;2024-02-15T07:19:45;24.13;;;15.50;;
54430;SDS011;40342;52.998;5.862;2024-02-15T07:22:14;20.70;;;14.43;;
54430;SDS011;40342;52.998;5.862;2024-02-15T07:24:40;18.20;;;15.07;;
54430;SDS011;40342;52.998;5.862;2024-02-15T07:27:06;15.75;;;13.93;;
54430;SDS011;40342;52.998;5.862;2024-02-15T07:29:31;18.85;;;14.35;;
54430;SDS011;40342;52.998;5.862;2024-02-15T07:32:02;20.85;;;14.48;;
54430;SDS011;40342;52.998;5.862;2024-02-15T07:34:29;20.50;;;14.13;;
54430;SDS011;40342;52.998;5.862;2024-02-15T07:36:56;17.58;;;13.65;;
54430;SDS011;40342;52.998;5.862;2024-02-15T07:39:23;17.83;;;14.55;;
54430;SDS011;40342;52.998;5.862;2024-02-15T07:41:53;18.45;;;13.50;;
54430;SDS011;40342;52.998;5.862;2024-02-15T07:44:19;16.85;;;13.15;;
54430;SDS011;40342;52.998;5.862;2024-02-15T07:46:47;19.83;;;14.27;;
54430;SDS011;40342;52.998;5.862;2024-02-15T07:49:12;18.92;;;13.88;;
54430;SDS011;40342;52.998;5.862;2024-02-15T07:51:38;19.48;;;13.50;;
54430;SDS011;40342;52.998;5.862;2024-02-15T07:54:05;18.50;;;14.25;;
54430;SDS011;40342;52.998;5.862;2024-02-15T07:56:31;22.88;;;14.93;;
54430;SDS011;40342;52.998;5.862;2024-02-15T07:58:57;17.38;;;13.88;;
54430;SDS011;40342;52.998;5.862;2024-02-15T08:01:22;19.30;;;15.00;;
54430;SDS011;40342;52.998;5.862;2024-02-15T08:03:48;19.10;;;13.77;;
54430;SDS011;40342;52.998;5.862;2024-02-15T08:06:14;19.25;;;14.35;;
54430;SDS011;40342;52.998;5.862;2024-02-15T08:08:41;18.65;;;14.57;;
54430;SDS011;40342;52.998;5.862;2024-02-15T08:11:11;16.30;;;13.57;;
54430;SDS011;40342;52.998;5.862;2024-02-15T08:13:42;17.65;;;13.95;;
54430;SDS011;40342;52.998;5.862;2024-02-15T08:16:15;18.17;;;13.85;;
54430;SDS011;40342;52.998;5.862;2024-02-15T08:18:42;17.25;;;14.10;;
54430;SDS011;40342;52.998;5.862;2024-02-15T08:21:13;17.33;;;14.43;;
54430;SDS011;40342;52.998;5.862;2024-02-15T08:23:39;18.83;;;13.93;;
54430;SDS011;40342;52.998;5.862;2024-02-15T08:26:05;19.70;;;13.90;;
54430;SDS011;40342;52.998;5.862;2024-02-15T08:28:31;16.83;;;14.07;;
54430;SDS011;40342;52.998;5.862;2024-02-15T08:30:57;17.73;;;14.63;;
54430;SDS011;40342;52.998;5.862;2024-02-15T08:33:23;18.30;;;14.90;;
54430;SDS011;40342;52.998;5.862;2024-02-15T08:35:49;18.25;;;15.15;;
54430;SDS011;40342;52.998;5.862;2024-02-15T08:38:15;17.38;;;13.85;;
54430;SDS011;40342;52.998;5.862;2024-02-15T08:40:42;16.10;;;13.75;;
54430;SDS011;40342;52.998;5.862;2024-02-15T08:43:09;18.17;;;14.27;;
54430;SDS011;40342;52.998;5.862;2024-02-15T08:45:34;17.65;;;14.18;;
54430;SDS011;40342;52.998;5.862;2024-02-15T08:48:00;19.17;;;14.27;;
54430;SDS011;40342;52.998;5.862;2024-02-15T08:50:29;17.48;;;13.68;;
54430;SDS011;40342;52.998;5.862;2024-02-15T08:52:55;19.48;;;14.45;;
54430;SDS011;40342;52.998;5.862;2024-02-15T08:55:21;16.45;;;13.95;;
54430;SDS011;40342;52.998;5.862;2024-02-15T08:57:52;20.00;;;14.32;;
54430;SDS011;40342;52.998;5.862;2024-02-15T09:00:18;17.10;;;13.77;;
54430;SDS011;40342;52.998;5.862;2024-02-15T09:02:45;18.10;;;13.73;;
54430;SDS011;40342;52.998;5.862;2024-02-15T09:05:11;19.70;;;13.30;;
54430;SDS011;40342;52.998;5.862;2024-02-15T09:07:41;18.40;;;13.02;;
54430;SDS011;40342;52.998;5.862;2024-02-15T09:10:08;16.35;;;13.77;;
54430;SDS011;40342;52.998;5.862;2024-02-15T09:12:37;14.63;;;13.07;;
54430;SDS011;40342;52.998;5.862;2024-02-15T09:15:05;18.25;;;12.88;;
54430;SDS011;40342;52.998;5.862;2024-02-15T09:17:36;16.98;;;12.65;;
54430;SDS011;40342;52.998;5.862;2024-02-15T09:20:11;16.52;;;13.30;;
54430;SDS011;40342;52.998;5.862;2024-02-15T09:22:49;14.52;;;12.23;;
54430;SDS011;40342;52.998;5.862;2024-02-15T09:25:16;13.88;;;12.10;;
54430;SDS011;40342;52.998;5.862;2024-02-15T09:27:42;13.13;;;11.70;;
54430;SDS011;40342;52.998;5.862;2024-02-15T09:30:08;13.27;;;10.82;;
54430;SDS011;40342;52.998;5.862;2024-02-15T09:32:35;13.35;;;10.73;;
54430;SDS011;40342;52.998;5.862;2024-02-15T09:35:01;11.90;;;10.73;;
54430;SDS011;40342;52.998;5.862;2024-02-15T09:37:27;11.25;;;10.05;;
54430;SDS011;40342;52.998;5.862;2024-02-15T09:39:54;13.30;;;9.90;;
54430;SDS011;40342;52.998;5.862;2024-02-15T09:42:20;10.75;;;9.25;;
54430;SDS011;40342;52.998;5.862;2024-02-15T09:44:49;9.35;;;8.38;;
54430;SDS011;40342;52.998;5.862;2024-02-15T09:47:19;8.65;;;7.88;;
54430;SDS011;40342;52.998;5.862;2024-02-15T09:49:45;8.73;;;7.93;;
54430;SDS011;40342;52.998;5.862;2024-02-15T09:52:11;10.20;;;7.53;;
54430;SDS011;40342;52.998;5.862;2024-02-15T09:54:40;8.02;;;7.22;;
54430;SDS011;40342;52.998;5.862;2024-02-15T09:57:09;8.30;;;7.28;;
54430;SDS011;40342;52.998;5.862;2024-02-15T09:59:38;7.97;;;7.25;;
54430;SDS011;40342;52.998;5.862;2024-02-15T10:02:05;7.47;;;6.78;;
54430;SDS011;40342;52.998;5.862;2024-02-15T10:04:44;6.93;;;6.32;;
54430;SDS011;40342;52.998;5.862;2024-02-15T10:07:10;7.20;;;6.60;;
54430;SDS011;40342;52.998;5.862;2024-02-15T10:09:38;7.35;;;6.68;;
54430;SDS011;40342;52.998;5.862;2024-02-15T10:12:07;6.95;;;6.25;;
54430;SDS011;40342;52.998;5.862;2024-02-15T10:14:34;6.20;;;5.70;;
54430;SDS011;40342;52.998;5.862;2024-02-15T10:17:09;6.35;;;5.75;;
54430;SDS011;40342;52.998;5.862;2024-02-15T10:19:36;7.22;;;6.30;;
54430;SDS011;40342;52.998;5.862;2024-02-15T10:22:06;6.10;;;5.60;;
54430;SDS011;40342;52.998;5.862;2024-02-15T10:24:32;6.45;;;5.78;;
54430;SDS011;40342;52.998;5.862;2024-02-15T10:27:01;5.75;;;5.15;;
54430;SDS011;40342;52.998;5.862;2024-02-15T10:29:29;5.65;;;5.18;;
54430;SDS011;40342;52.998;5.862;2024-02-15T10:31:56;5.85;;;5.35;;
54430;SDS011;40342;52.998;5.862;2024-02-15T10:34:23;5.75;;;5.35;;
54430;SDS011;40342;52.998;5.862;2024-02-15T10:36:52;5.60;;;5.10;;
54430;SDS011;40342;52.998;5.862;2024-02-15T10:39:36;5.28;;;4.85;;
54430;SDS011;40342;52.998;5.862;2024-02-15T10:42:02;5.40;;;4.97;;
54430;SDS011;40342;52.998;5.862;2024-02-15T10:44:31;5.53;;;5.13;;
54430;SDS011;40342;52.998;5.862;2024-02-15T10:46:59;5.22;;;4.72;;
54430;SDS011;40342;52.998;5.862;2024-02-15T10:49:31;5.57;;;5.17;;
54430;SDS011;40342;52.998;5.862;2024-02-15T10:51:57;5.20;;;4.72;;
54430;SDS011;40342;52.998;5.862;2024-02-15T10:57:11;5.10;;;4.70;;
54430;SDS011;40342;52.998;5.862;2024-02-15T10:59:39;5.30;;;4.90;;
54430;SDS011;40342;52.998;5.862;2024-02-15T11:02:36;5.53;;;5.05;;
54430;SDS011;40342;52.998;5.862;2024-02-15T11:05:06;5.78;;;5.32;;
54430;SDS011;40342;52.998;5.862;2024-02-15T11:07:37;6.10;;;5.47;;
54430;SDS011;40342;52.998;5.862;2024-02-15T11:10:04;7.60;;;5.55;;
54430;SDS011;40342;52.998;5.862;2024-02-15T11:12:33;6.25;;;5.63;;
54430;SDS011;40342;52.998;5.862;2024-02-15T11:14:59;6.22;;;5.40;;
54430;SDS011;40342;52.998;5.862;2024-02-15T11:20:05;9.38;;;7.15;;
54430;SDS011;40342;52.998;5.862;2024-02-15T11:22:34;15.13;;;8.70;;
54430;SDS011;40342;52.998;5.862;2024-02-15T11:25:04;12.13;;;8.90;;
54430;SDS011;40342;52.998;5.862;2024-02-15T11:27:33;16.35;;;9.55;;
54430;SDS011;40342;52.998;5.862;2024-02-15T11:30:02;14.27;;;10.40;;
54430;SDS011;40342;52.998;5.862;2024-02-15T11:35:12;22.65;;;11.00;;
54430;SDS011;40342;52.998;5.862;2024-02-15T11:40:17;14.25;;;11.20;;
54430;SDS011;40342;52.998;5.862;2024-02-15T11:42:46;21.73;;;11.55;;
54430;SDS011;40342;52.998;5.862;2024-02-15T11:45:12;21.70;;;11.80;;
54430;SDS011;40342;52.998;5.862;2024-02-15T11:47:40;18.17;;;11.82;;
54430;SDS011;40342;52.998;5.862;2024-02-15T11:50:13;16.58;;;11.98;;
54430;SDS011;40342;52.998;5.862;2024-02-15T11:52:49;18.90;;;11.27;;
54430;SDS011;40342;52.998;5.862;2024-02-15T11:55:20;19.88;;;11.90;;
54430;SDS011;40342;52.998;5.862;2024-02-15T11:57:56;18.02;;;12.13;;
54430;SDS011;40342;52.998;5.862;2024-02-15T12:00:31;18.55;;;12.27;;
54430;SDS011;40342;52.998;5.862;2024-02-15T12:03:16;19.25;;;11.93;;
54430;SDS011;40342;52.998;5.862;2024-02-15T12:06:01;20.77;;;13.13;;
54430;SDS011;40342;52.998;5.862;2024-02-15T12:08:50;20.83;;;13.43;;
54430;SDS011;40342;52.998;5.862;2024-02-15T12:11:35;22.65;;;14.15;;
54430;SDS011;40342;52.998;5.862;2024-02-15T12:14:19;22.58;;;13.70;;
54430;SDS011;40342;52.998;5.862;2024-02-15T12:17:04;21.88;;;14.40;;
54430;SDS011;40342;52.998;5.862;2024-02-15T12:19:53;24.83;;;14.38;;
54430;SDS011;40342;52.998;5.862;2024-02-15T12:22:21;21.95;;;14.15;;
54430;SDS011;40342;52.998;5.862;2024-02-15T12:25:00;26.30;;;13.73;;
54430;SDS011;40342;52.998;5.862;2024-02-15T12:27:37;21.23;;;13.60;;
54430;SDS011;40342;52.998;5.862;2024-02-15T12:30:04;21.95;;;15.10;;
54430;SDS011;40342;52.998;5.862;2024-02-15T12:32:32;24.50;;;14.38;;
54430;SDS011;40342;52.998;5.862;2024-02-15T12:35:16;21.90;;;13.48;;
54430;SDS011;40342;52.998;5.862;2024-02-15T12:37:46;22.90;;;13.98;;
54430;SDS011;40342;52.998;5.862;2024-02-15T12:42:47;19.98;;;12.30;;
54430;SDS011;40342;52.998;5.862;2024-02-15T12:45:16;20.90;;;12.25;;
54430;SDS011;40342;52.998;5.862;2024-02-15T12:47:45;18.50;;;12.63;;
54430;SDS011;40342;52.998;5.862;2024-02-15T12:50:18;20.23;;;13.00;;
54430;SDS011;40342;52.998;5.862;2024-02-15T12:52:48;20.98;;;12.32;;
54430;SDS011;40342;52.998;5.862;2024-02-15T12:55:21;17.00;;;12.35;;
54430;SDS011;40342;52.998;5.862;2024-02-15T12:57:53;20.02;;;12.25;;
54430;SDS011;40342;52.998;5.862;2024-02-15T13:00:25;18.83;;;12.15;;
54430;SDS011;40342;52.998;5.862;2024-02-15T13:02:57;21.27;;;11.77;;
54430;SDS011;40342;52.998;5.862;2024-02-15T13:05:24;17.42;;;11.73;;
54430;SDS011;40342;52.998;5.862;2024-02-15T13:07:51;20.10;;;11.43;;
54430;SDS011;40342;52.998;5.862;2024-02-15T13:10:20;19.05;;;12.05;;
54430;SDS011;40342;52.998;5.862;2024-02-15T13:12:47;17.08;;;10.93;;
54430;SDS011;40342;52.998;5.862;2024-02-15T13:15:14;19.48;;;11.65;;
54430;SDS011;40342;52.998;5.862;2024-02-15T13:17:45;19.73;;;11.80;;
54430;SDS011;40342;52.998;5.862;2024-02-15T13:20:13;21.67;;;11.88;;
54430;SDS011;40342;52.998;5.862;2024-02-15T13:22:42;19.63;;;11.75;;
54430;SDS011;40342;52.998;5.862;2024-02-15T13:25:09;21.30;;;10.95;;
54430;SDS011;40342;52.998;5.862;2024-02-15T13:27:38;18.10;;;10.93;;
54430;SDS011;40342;52.998;5.862;2024-02-15T13:30:04;18.08;;;11.35;;
54430;SDS011;40342;52.998;5.862;2024-02-15T13:32:37;21.70;;;12.07;;
54430;SDS011;40342;52.998;5.862;2024-02-15T13:35:13;19.52;;;11.73;;
54430;SDS011;40342;52.998;5.862;2024-02-15T13:37:42;19.20;;;10.88;;
54430;SDS011;40342;52.998;5.862;2024-02-15T13:40:11;18.45;;;11.85;;
54430;SDS011;40342;52.998;5.862;2024-02-15T13:42:41;18.10;;;11.50;;
54430;SDS011;40342;52.998;5.862;2024-02-15T13:45:12;19.00;;;11.55;;
54430;SDS011;40342;52.998;5.862;2024-02-15T13:47:38;19.60;;;10.73;;
54430;SDS011;40342;52.998;5.862;2024-02-15T13:50:04;20.35;;;11.00;;
54430;SDS011;40342;52.998;5.862;2024-02-15T13:52:30;20.25;;;11.98;;
54430;SDS011;40342;52.998;5.862;2024-02-15T13:54:56;17.05;;;10.40;;
54430;SDS011;40342;52.998;5.862;2024-02-15T13:57:21;18.30;;;10.73;;
54430;SDS011;40342;52.998;5.862;2024-02-15T13:59:48;16.85;;;10.80;;
54430;SDS011;40342;52.998;5.862;2024-02-15T14:02:13;17.85;;;10.75;;
54430;SDS011;40342;52.998;5.862;2024-02-15T14:04:40;21.88;;;10.45;;
54430;SDS011;40342;52.998;5.862;2024-02-15T14:07:06;18.70;;;10.70;;
54430;SDS011;40342;52.998;5.862;2024-02-15T14:09:32;17.23;;;10.25;;
54430;SDS011;40342;52.998;5.862;2024-02-15T14:11:59;19.42;;;10.30;;
54430;SDS011;40342;52.998;5.862;2024-02-15T14:14:27;15.00;;;9.93;;
54430;SDS011;40342;52.998;5.862;2024-02-15T14:16:52;16.55;;;10.55;;
54430;SDS011;40342;52.998;5.862;2024-02-15T14:19:18;14.63;;;10.15;;
54430;SDS011;40342;52.998;5.862;2024-02-15T14:21:43;18.08;;;9.82;;
54430;SDS011;40342;52.998;5.862;2024-02-15T14:24:10;17.27;;;10.57;;
54430;SDS011;40342;52.998;5.862;2024-02-15T14:26:36;16.85;;;9.70;;
54430;SDS011;40342;52.998;5.862;2024-02-15T14:29:01;14.82;;;9.95;;
54430;SDS011;40342;52.998;5.862;2024-02-15T14:31:28;19.85;;;10.43;;
54430;SDS011;40342;52.998;5.862;2024-02-15T14:34:29;18.60;;;10.40;;
54430;SDS011;40342;52.998;5.862;2024-02-15T14:36:55;17.95;;;10.80;;
54430;SDS011;40342;52.998;5.862;2024-02-15T14:39:22;17.52;;;10.52;;
54430;SDS011;40342;52.998;5.862;2024-02-15T14:41:48;15.20;;;9.60;;
54430;SDS011;40342;52.998;5.862;2024-02-15T14:44:14;21.23;;;10.27;;
54430;SDS011;40342;52.998;5.862;2024-02-15T14:46:39;15.52;;;9.45;;
54430;SDS011;40342;52.998;5.862;2024-02-15T14:49:05;14.98;;;9.32;;
54430;SDS011;40342;52.998;5.862;2024-02-15T14:51:31;18.95;;;9.77;;